Time;durP1;ratioP1;P1;durP2;ratioP2;P2;SDS_P1;SDS_P2;PMS_P1;PMS_P2;Temp;Humidity;BMP_temperature;BMP_pressure;BME280_temperature;BME280_humidity;BME280_pressure;Samples;Min_cycle;Max_cycle;Signal;HPM_P1;HPM_P2
2023/07/23 00:01:44;;;;;;;16.58;13.13;;;;;;;19.56;100.00;-18553.25;5103461;28;20521;-76
2023/07/23 00:04:10;;;;;;;22.00;12.98;;;;;;;19.40;100.00;-18548.88;5108936;28;20422;-76
2023/07/23 00:06:35;;;;;;;18.48;13.25;;;;;;;19.49;100.00;-18551.34;5101577;28;20047;-77
2023/07/23 00:09:00;;;;;;;18.98;11.40;;;;;;;19.47;100.00;-18550.66;5099700;28;20043;-77
2023/07/23 00:11:26;;;;;;;17.58;12.98;;;;;;;19.50;100.00;-18551.47;5100568;28;20035;-76
2023/07/23 00:13:51;;;;;;;16.75;12.38;;;;;;;19.53;100.00;-18552.44;5105341;28;20085;-77
2023/07/23 00:16:16;;;;;;;17.25;12.70;;;;;;;19.54;100.00;-18552.56;5097114;28;20043;-76
2023/07/23 00:18:42;;;;;;;18.00;13.02;;;;;;;19.42;100.00;-18549.44;5096784;28;20039;-76
2023/07/23 00:21:07;;;;;;;18.67;12.50;;;;;;;19.72;100.00;-18557.47;5101192;28;20051;-76
2023/07/23 00:23:32;;;;;;;17.58;12.45;;;;;;;19.65;100.00;-18555.56;5101511;28;20058;-76
2023/07/23 00:25:58;;;;;;;18.42;12.82;;;;;;;19.66;100.00;-18555.69;5103938;28;20055;-76
2023/07/23 00:28:23;;;;;;;16.98;13.27;;;;;;;19.67;100.00;-18555.97;5095748;28;20486;-76
2023/07/23 00:30:49;;;;;;;20.35;12.80;;;;;;;19.54;100.00;-18552.69;5104575;28;20722;-76
2023/07/23 00:33:14;;;;;;;17.70;12.75;;;;;;;19.55;100.00;-18552.97;5093173;28;20044;-76
2023/07/23 00:35:40;;;;;;;16.85;13.57;;;;;;;19.57;100.00;-18553.50;5086123;28;20090;-76
2023/07/23 00:38:05;;;;;;;20.05;15.38;;;;;;;19.65;100.00;-18555.56;5095019;28;20048;-77
2023/07/23 00:40:30;;;;;;;19.17;14.02;;;;;;;19.64;100.00;-18555.16;5101336;28;20052;-77
2023/07/23 00:42:56;;;;;;;18.92;13.35;;;;;;;19.53;100.00;-18552.44;5106744;27;20047;-77
2023/07/23 00:45:24;;;;;;;21.30;14.63;;;;;;;19.59;100.00;-18553.91;5107935;27;20039;-76
2023/07/23 00:47:49;;;;;;;21.85;13.70;;;;;;;19.57;100.00;-18553.38;5108997;27;20039;-76
2023/07/23 00:50:15;;;;;;;19.17;14.00;;;;;;;19.55;100.00;-18552.84;5093525;28;20076;-76
2023/07/23 00:52:42;;;;;;;17.77;13.25;;;;;;;19.49;100.00;-18551.34;5109085;27;20127;-77
2023/07/23 00:55:08;;;;;;;21.17;14.40;;;;;;;19.47;100.00;-18550.78;5113270;27;20043;-76
2023/07/23 00:57:33;;;;;;;21.00;13.32;;;;;;;19.38;100.00;-18548.34;5088909;27;20324;-76
2023/07/23 00:59:58;;;;;;;18.90;13.30;;;;;;;19.29;100.00;-18545.88;5109198;27;20580;-77
2023/07/23 01:02:27;;;;;;;17.63;12.95;;;;;;;19.33;100.00;-18547.13;5105244;27;20522;-77
2023/07/23 01:04:54;;;;;;;16.85;12.18;;;;;;;19.26;100.00;-18545.22;5102767;27;20085;-77
2023/07/23 01:07:20;;;;;;;16.40;11.77;;;;;;;19.26;100.00;-18545.22;5107885;27;20043;-76
2023/07/23 01:09:47;;;;;;;16.52;12.43;;;;;;;19.27;100.00;-18545.34;5108438;27;20373;-77
2023/07/23 01:12:14;;;;;;;19.83;12.52;;;;;;;19.27;100.00;-18545.34;5106427;27;20047;-76
2023/07/23 01:14:40;;;;;;;15.90;11.65;;;;;;;19.16;100.00;-18542.63;5090869;28;20165;-77
2023/07/23 01:17:07;;;;;;;18.38;12.15;;;;;;;19.16;100.00;-18542.63;5108874;27;20099;-77
2023/07/23 01:19:32;;;;;;;17.48;11.80;;;;;;;19.02;100.00;-18538.81;5106541;27;20044;-76
2023/07/23 01:22:00;;;;;;;17.27;11.85;;;;;;;19.06;100.00;-18539.91;5110197;27;20046;-76
2023/07/23 01:24:25;;;;;;;15.25;12.23;;;;;;;19.11;100.00;-18541.25;5103289;27;20490;-77
2023/07/23 01:26:51;;;;;;;17.67;11.98;;;;;;;19.08;100.00;-18540.31;5106711;27;20096;-77
2023/07/23 01:29:16;;;;;;;19.23;12.80;;;;;;;19.08;100.00;-18540.44;5089081;28;20043;-77
2023/07/23 01:31:41;;;;;;;19.90;12.43;;;;;;;19.12;100.00;-18541.53;5107063;28;20486;-77
2023/07/23 01:34:07;;;;;;;18.40;12.05;;;;;;;19.07;100.00;-18540.03;5110126;27;20036;-77
2023/07/23 01:36:33;;;;;;;17.30;11.63;;;;;;;19.04;100.00;-18539.34;5103841;27;20040;-77
2023/07/23 01:38:58;;;;;;;18.48;11.82;;;;;;;19.11;100.00;-18541.25;5108000;27;20123;-76
2023/07/23 01:41:24;;;;;;;18.10;11.82;;;;;;;19.23;100.00;-18544.38;5104644;27;20044;-76
2023/07/23 01:43:50;;;;;;;16.40;12.63;;;;;;;19.30;100.00;-18546.28;5108734;27;20036;-76
2023/07/23 01:46:15;;;;;;;17.50;12.80;;;;;;;19.22;100.00;-18543.97;5108932;27;20067;-77
2023/07/23 01:48:41;;;;;;;15.45;11.90;;;;;;;19.18;100.00;-18543.03;5106016;27;20116;-77
2023/07/23 01:51:08;;;;;;;19.05;12.77;;;;;;;19.46;100.00;-18550.38;5106635;27;20043;-76
2023/07/23 01:53:34;;;;;;;17.85;11.60;;;;;;;19.52;100.00;-18552.03;5095423;27;20047;-76
2023/07/23 01:55:59;;;;;;;16.15;12.43;;;;;;;19.55;100.00;-18552.97;5109843;27;20043;-77
2023/07/23 01:58:24;;;;;;;16.88;11.85;;;;;;;19.63;100.00;-18554.88;5106265;27;20583;-76
2023/07/23 02:01:00;;;;;;;15.48;12.10;;;;;;;19.59;100.00;-18554.06;5106863;27;20042;-77
2023/07/23 02:03:26;;;;;;;16.95;12.18;;;;;;;19.21;100.00;-18543.72;5106259;27;20501;-76
2023/07/23 02:05:56;;;;;;;18.23;12.90;;;;;;;19.31;100.00;-18546.44;5089119;28;20047;-77
2023/07/23 02:08:21;;;;;;;17.98;12.63;;;;;;;19.41;100.00;-18549.03;5105356;27;20046;-76
2023/07/23 02:10:46;;;;;;;17.42;11.50;;;;;;;19.51;100.00;-18551.75;5105229;27;20043;-77
2023/07/23 02:13:12;;;;;;;18.13;10.95;;;;;;;19.52;100.00;-18552.03;5106281;27;20609;-76
2023/07/23 02:15:37;;;;;;;14.02;10.88;;;;;;;19.52;100.00;-18552.16;5100960;27;20544;-77
2023/07/23 02:18:02;;;;;;;14.27;10.30;;;;;;;19.48;100.00;-18550.94;5105662;27;20067;-76
2023/07/23 02:20:28;;;;;;;15.27;10.82;;;;;;;19.35;100.00;-18547.53;5102322;27;20048;-76
2023/07/23 02:22:53;;;;;;;16.33;11.20;;;;;;;19.30;100.00;-18546.16;5106368;27;20051;-77
2023/07/23 02:25:18;;;;;;;17.80;11.05;;;;;;;19.29;100.00;-18545.88;5092255;27;20092;-76
2023/07/23 02:27:44;;;;;;;16.33;11.25;;;;;;;19.27;100.00;-18545.34;5088940;27;20521;-77
2023/07/23 02:30:10;;;;;;;15.57;10.68;;;;;;;19.39;100.00;-18548.59;5110109;27;20035;-76
2023/07/23 02:32:35;;;;;;;17.02;11.07;;;;;;;19.43;100.00;-18549.69;5102917;27;20048;-77
2023/07/23 02:35:00;;;;;;;17.58;10.52;;;;;;;19.38;100.00;-18548.47;5106849;27;20044;-76
2023/07/23 02:37:26;;;;;;;17.13;10.85;;;;;;;19.33;100.00;-18547.13;5104283;27;20414;-76
2023/07/23 02:39:53;;;;;;;17.50;11.10;;;;;;;19.30;100.00;-18546.28;5107262;27;20135;-77
2023/07/23 02:42:18;;;;;;;15.90;11.32;;;;;;;19.35;100.00;-18547.66;5112420;27;20032;-76
2023/07/23 02:44:43;;;;;;;17.00;9.48;;;;;;;19.23;100.00;-18544.38;5106185;27;20043;-76
2023/07/23 02:47:09;;;;;;;14.35;10.55;;;;;;;19.13;100.00;-18541.81;5086617;28;20124;-76
2023/07/23 02:49:34;;;;;;;19.00;10.50;;;;;;;19.21;100.00;-18543.84;5102827;27;20123;-76
2023/07/23 02:52:01;;;;;;;12.55;9.82;;;;;;;19.27;100.00;-18545.34;5103690;27;20035;-75
2023/07/23 02:54:26;;;;;;;15.70;10.90;;;;;;;19.11;100.00;-18541.25;5104181;28;20050;-76
2023/07/23 02:56:51;;;;;;;17.08;10.40;;;;;;;19.17;100.00;-18542.88;5106286;27;20044;-76
2023/07/23 02:59:17;;;;;;;12.20;8.90;;;;;;;19.28;100.00;-18545.63;5108684;27;20482;-76
2023/07/23 03:01:42;;;;;;;12.82;9.25;;;;;;;19.02;100.00;-18538.81;5105062;27;20078;-77
2023/07/23 03:04:08;;;;;;;13.30;9.15;;;;;;;19.01;100.00;-18538.53;5105204;27;20042;-76
2023/07/23 03:06:33;;;;;;;16.02;8.40;;;;;;;18.90;100.00;-18535.53;5103972;28;20062;-76
2023/07/23 03:08:58;;;;;;;13.57;8.73;;;;;;;18.87;100.00;-18534.84;5102653;27;20125;-76
2023/07/23 03:11:24;;;;;;;11.63;8.00;;;;;;;19.25;100.00;-18544.94;5103582;27;20040;-76
2023/07/23 03:13:49;;;;;;;14.45;9.00;;;;;;;19.40;100.00;-18548.88;5105111;28;20035;-76
2023/07/23 03:16:15;;;;;;;14.32;8.73;;;;;;;19.38;100.00;-18548.34;5105635;27;20455;-77
2023/07/23 03:18:40;;;;;;;12.10;8.63;;;;;;;19.30;100.00;-18546.16;5103865;27;20047;-76
2023/07/23 03:21:05;;;;;;;13.05;9.13;;;;;;;19.28;100.00;-18545.63;5101313;28;20066;-76
2023/07/23 03:23:31;;;;;;;15.60;9.18;;;;;;;19.32;100.00;-18546.72;5099191;28;20043;-76
2023/07/23 03:25:56;;;;;;;10.80;8.30;;;;;;;19.17;100.00;-18542.88;5098138;28;20433;-77
2023/07/23 03:28:22;;;;;;;13.60;9.00;;;;;;;19.32;100.00;-18546.72;5094359;28;20032;-76
2023/07/23 03:30:47;;;;;;;13.20;8.63;;;;;;;19.36;100.00;-18547.78;5100611;28;20067;-77
2023/07/23 03:33:13;;;;;;;13.73;8.88;;;;;;;19.37;100.00;-18548.19;5100314;28;20047;-77
2023/07/23 03:35:38;;;;;;;15.38;8.90;;;;;;;19.37;100.00;-18548.06;5098394;28;20246;-77
2023/07/23 03:38:03;;;;;;;13.52;8.48;;;;;;;19.24;100.00;-18544.53;5091050;28;20044;-77
2023/07/23 03:40:29;;;;;;;14.25;9.00;;;;;;;19.52;100.00;-18552.16;5097894;28;20040;-77
2023/07/23 03:42:54;;;;;;;16.80;8.95;;;;;;;19.45;100.00;-18550.25;5103371;28;20119;-76
2023/07/23 03:45:20;;;;;;;11.15;7.65;;;;;;;19.46;100.00;-18550.53;5085818;28;20122;-76
2023/07/23 03:47:45;;;;;;;13.25;8.45;;;;;;;19.45;100.00;-18550.25;5102107;28;20441;-76
2023/07/23 03:50:10;;;;;;;12.82;7.72;;;;;;;19.54;100.00;-18552.56;5100882;28;20040;-77
2023/07/23 03:52:36;;;;;;;14.05;7.60;;;;;;;19.64;100.00;-18555.28;5099828;28;20039;-76
2023/07/23 03:55:01;;;;;;;13.18;7.57;;;;;;;19.65;100.00;-18555.41;5098506;28;20036;-76
2023/07/23 03:57:26;;;;;;;10.48;7.25;;;;;;;19.65;100.00;-18555.56;5083072;28;20044;-76
2023/07/23 03:59:52;;;;;;;10.45;8.48;;;;;;;19.61;100.00;-18554.59;5103035;28;20054;-76
2023/07/23 04:02:17;;;;;;;11.98;7.78;;;;;;;19.63;100.00;-18555.00;5101730;28;20513;-76
2023/07/23 04:04:43;;;;;;;12.38;7.13;;;;;;;19.65;100.00;-18555.41;5093114;28;20465;-77
2023/07/23 04:07:08;;;;;;;12.60;7.90;;;;;;;19.72;100.00;-18557.34;5082354;28;20066;-77
2023/07/23 04:09:34;;;;;;;12.93;7.53;;;;;;;19.73;100.00;-18557.75;5098001;28;20142;-77
2023/07/23 04:12:01;;;;;;;11.35;7.22;;;;;;;19.83;100.00;-18560.34;5101684;28;20071;-76
2023/07/23 04:14:26;;;;;;;10.95;7.75;;;;;;;19.99;100.00;-18564.69;5100145;28;20040;-77
2023/07/23 04:16:53;;;;;;;11.82;7.47;;;;;;;19.82;100.00;-18560.06;5102415;28;20035;-76
2023/07/23 04:19:19;;;;;;;13.55;8.27;;;;;;;19.83;100.00;-18560.47;5104275;28;20032;-77
2023/07/23 04:21:44;;;;;;;11.23;7.15;;;;;;;19.83;100.00;-18560.34;5104899;28;20067;-77
2023/07/23 04:24:10;;;;;;;13.52;8.00;;;;;;;19.75;100.00;-18558.16;5092776;28;20517;-76
2023/07/23 04:26:35;;;;;;;12.35;8.38;;;;;;;20.01;100.00;-18565.22;5101631;28;20043;-77
2023/07/23 04:29:01;;;;;;;10.40;6.90;;;;;;;19.90;100.00;-18562.22;5105233;28;20536;-77
2023/07/23 04:31:26;;;;;;;11.95;6.75;;;;;;;19.92;100.00;-18562.78;5104633;28;20047;-76
2023/07/23 04:33:52;;;;;;;15.40;7.10;;;;;;;19.92;100.00;-18562.66;5093696;28;20051;-76
2023/07/23 04:36:17;;;;;;;12.48;7.50;;;;;;;20.09;100.00;-18567.13;5103908;28;20054;-75
2023/07/23 04:38:43;;;;;;;11.95;7.00;;;;;;;20.06;100.00;-18566.47;5105837;28;20069;-76
2023/07/23 04:41:09;;;;;;;10.93;6.40;;;;;;;20.15;100.00;-18568.91;5088077;28;20146;-76
2023/07/23 04:43:35;;;;;;;12.38;6.60;;;;;;;20.19;100.00;-18570.00;5104310;28;20103;-76
2023/07/23 04:46:00;;;;;;;12.88;6.63;;;;;;;20.31;100.00;-18573.00;5107572;28;20055;-76
2023/07/23 04:48:26;;;;;;;9.65;6.32;;;;;;;20.31;100.00;-18573.00;5105424;28;20042;-76
2023/07/23 04:50:58;;;;;;;11.73;7.05;;;;;;;20.44;100.00;-18576.66;5106992;28;20054;-76
2023/07/23 04:53:24;;;;;;;10.63;6.57;;;;;;;20.32;100.00;-18573.41;5106772;28;20047;-77
2023/07/23 04:55:54;;;;;;;10.30;6.35;;;;;;;20.32;100.00;-18573.25;5106014;28;20048;-76
2023/07/23 04:58:20;;;;;;;11.32;6.05;;;;;;;20.21;100.00;-18570.41;5104309;28;20040;-77
2023/07/23 05:00:47;;;;;;;12.48;6.80;;;;;;;20.33;100.00;-18573.66;5101883;28;20044;-76
2023/07/23 05:03:12;;;;;;;12.80;6.63;;;;;;;20.41;100.00;-18575.84;5100938;28;20035;-76
2023/07/23 05:06:00;;;;;;;13.38;6.93;;;;;;;20.39;100.00;-18575.31;5088429;28;20051;-76
2023/07/23 05:08:26;;;;;;;12.32;6.03;;;;;;;20.46;100.00;-18577.22;5081470;28;20048;-77
2023/07/23 05:11:00;;;;;;;9.88;6.40;;;;;;;20.51;100.00;-18578.56;5100404;28;20040;-76
2023/07/23 05:13:25;;;;;;;11.50;6.10;;;;;;;20.46;100.00;-18577.22;5104343;28;20043;-76
2023/07/23 05:15:51;;;;;;;9.48;6.28;;;;;;;20.40;100.00;-18575.56;5106581;28;20553;-76
2023/07/23 05:18:16;;;;;;;11.43;5.90;;;;;;;20.38;100.00;-18574.91;5102520;28;20131;-77
2023/07/23 05:20:41;;;;;;;10.45;6.28;;;;;;;20.54;100.00;-18579.25;5100831;28;20071;-77
2023/07/23 05:23:07;;;;;;;9.48;5.60;;;;;;;20.61;100.00;-18581.03;5105667;28;20074;-77
2023/07/23 05:25:32;;;;;;;11.15;6.05;;;;;;;20.70;100.00;-18583.47;5103227;28;20579;-77
2023/07/23 05:27:58;;;;;;;10.45;5.85;;;;;;;20.63;100.00;-18581.69;5102459;28;20135;-75
2023/07/23 05:30:23;;;;;;;11.55;5.55;;;;;;;20.78;100.00;-18585.66;5097378;28;20889;-76
2023/07/23 05:32:49;;;;;;;9.50;5.57;;;;;;;20.81;100.00;-18586.31;5105111;28;20499;-77
2023/07/23 05:35:14;;;;;;;10.15;5.22;;;;;;;20.91;100.00;-18589.19;5104170;28;20035;-75
2023/07/23 05:37:40;;;;;;;11.15;5.85;;;;;;;20.91;100.00;-18589.19;5105529;28;20149;-76
2023/07/23 05:40:06;;;;;;;9.00;4.95;;;;;;;21.04;100.00;-18592.59;5106830;27;20039;-75
2023/07/23 05:42:31;;;;;;;9.63;5.07;;;;;;;20.99;100.00;-18591.09;5086767;28;20047;-76
2023/07/23 05:44:57;;;;;;;7.90;5.28;;;;;;;21.20;100.00;-18596.78;5104779;28;20406;-76
2023/07/23 05:47:22;;;;;;;8.18;4.63;;;;;;;21.09;100.00;-18593.94;5096071;28;21036;-76
2023/07/23 05:49:48;;;;;;;8.32;4.72;;;;;;;21.14;100.00;-18595.31;5104383;28;20032;-77
2023/07/23 05:52:13;;;;;;;7.65;4.45;;;;;;;21.07;100.00;-18593.25;5103644;28;20509;-76
2023/07/23 05:54:38;;;;;;;7.75;4.47;;;;;;;20.89;100.00;-18588.63;5104709;28;21088;-76
2023/07/23 05:57:04;;;;;;;7.82;4.60;;;;;;;20.87;100.00;-18587.97;5106370;28;20067;-77
2023/07/23 05:59:30;;;;;;;9.18;4.63;;;;;;;21.17;100.00;-18595.97;5102693;28;20065;-75
2023/07/23 06:01:55;;;;;;;8.27;4.97;;;;;;;21.15;100.00;-18595.44;5105308;28;20041;-77
2023/07/23 06:04:20;;;;;;;10.48;5.07;;;;;;;21.17;100.00;-18595.97;5104686;28;20640;-75
2023/07/23 06:06:46;;;;;;;9.85;4.95;;;;;;;21.14;100.00;-18595.31;5103362;28;20047;-77
2023/07/23 06:09:12;;;;;;;8.15;4.57;;;;;;;21.27;98.92;-18598.69;5102883;28;20036;-77
2023/07/23 06:11:37;;;;;;;10.98;4.63;;;;;;;21.34;98.57;-18600.59;5093211;28;20032;-76
2023/07/23 06:14:02;;;;;;;10.15;4.60;;;;;;;21.23;98.49;-18597.47;5101247;28;20063;-76
2023/07/23 06:16:30;;;;;;;12.05;5.00;;;;;;;21.29;99.95;-18599.25;5099761;28;20067;-77
2023/07/23 06:18:56;;;;;;;8.52;4.63;;;;;;;21.22;99.92;-18597.22;5105601;28;20039;-77
2023/07/23 06:21:21;;;;;;;9.60;4.80;;;;;;;21.33;98.64;-18600.19;5099603;28;20105;-76
2023/07/23 06:23:47;;;;;;;10.35;5.22;;;;;;;21.46;96.70;-18603.72;5099230;28;20135;-77
2023/07/23 06:26:13;;;;;;;8.55;4.20;;;;;;;21.48;96.27;-18604.28;5102601;28;20048;-77
2023/07/23 06:28:39;;;;;;;6.60;3.70;;;;;;;21.70;95.12;-18610.13;5083048;28;20036;-77
2023/07/23 06:31:04;;;;;;;7.55;4.25;;;;;;;21.80;92.76;-18612.69;5101635;28;20035;-77
2023/07/23 06:33:29;;;;;;;9.23;4.53;;;;;;;21.79;92.50;-18612.56;5100421;28;20043;-75
2023/07/23 06:35:55;;;;;;;7.72;4.10;;;;;;;21.87;91.36;-18614.59;5101983;28;20039;-76
2023/07/23 06:38:20;;;;;;;8.20;4.20;;;;;;;21.81;92.13;-18613.13;5106659;28;20042;-76
2023/07/23 06:40:50;;;;;;;9.90;4.97;;;;;;;21.81;92.14;-18612.97;5103686;28;20746;-78
2023/07/23 06:43:16;;;;;;;7.10;4.18;;;;;;;21.78;92.58;-18612.16;5101583;28;20039;-76
2023/07/23 06:45:46;;;;;;;5.53;3.65;;;;;;;21.83;90.81;-18613.66;5105458;28;20099;-76
2023/07/23 06:48:12;;;;;;;7.95;4.47;;;;;;;21.94;88.75;-18616.50;5105902;28;20028;-77
2023/07/23 06:50:38;;;;;;;6.88;4.22;;;;;;;21.94;89.40;-18616.50;5104821;28;20075;-77
2023/07/23 06:53:04;;;;;;;5.85;3.35;;;;;;;21.93;87.07;-18616.25;5103107;28;20484;-77
2023/07/23 06:55:30;;;;;;;6.47;3.50;;;;;;;21.69;86.84;-18609.84;5104727;28;20127;-76
2023/07/23 06:57:56;;;;;;;7.25;4.18;;;;;;;21.86;89.12;-18614.47;5103316;28;20032;-76
2023/07/23 07:00:22;;;;;;;8.32;4.45;;;;;;;22.01;88.88;-18618.28;5106855;28;20074;-77
2023/07/23 07:02:47;;;;;;;6.18;3.70;;;;;;;21.93;89.59;-18616.09;5101303;28;20051;-77
2023/07/23 07:05:12;;;;;;;7.13;3.85;;;;;;;21.83;90.66;-18613.66;5105296;28;20063;-76
2023/07/23 07:07:38;;;;;;;5.55;3.45;;;;;;;21.82;90.86;-18613.38;5085797;28;20032;-76
2023/07/23 07:10:05;;;;;;;7.90;3.92;;;;;;;21.84;91.44;-18613.78;5106984;28;20107;-77
2023/07/23 07:12:30;;;;;;;8.43;3.80;;;;;;;21.84;91.67;-18613.94;5104890;28;20104;-76
2023/07/23 07:14:55;;;;;;;8.57;3.88;;;;;;;21.79;91.62;-18612.44;5106697;28;20067;-76
2023/07/23 07:17:21;;;;;;;6.38;3.03;;;;;;;21.54;95.62;-18605.78;5105221;28;20046;-76
2023/07/23 07:19:46;;;;;;;5.60;3.50;;;;;;;21.57;95.90;-18606.59;5101817;28;20085;-78
2023/07/23 07:22:12;;;;;;;6.80;3.97;;;;;;;21.70;95.97;-18610.00;5103494;28;20495;-76
2023/07/23 07:24:40;;;;;;;6.60;3.50;;;;;;;21.57;98.45;-18606.72;5041562;28;20044;-76
2023/07/23 07:27:09;;;;;;;6.10;3.60;;;;;;;21.48;95.53;-18604.28;5033290;28;20127;-76
2023/07/23 07:29:38;;;;;;;6.32;4.07;;;;;;;21.58;95.36;-18607.00;5062738;28;20460;-75
2023/07/23 07:32:04;;;;;;;7.43;3.45;;;;;;;21.60;98.12;-18607.41;5060965;28;20091;-75
2023/07/23 07:34:30;;;;;;;8.38;4.15;;;;;;;21.49;100.00;-18604.41;5058465;28;20048;-76
2023/07/23 07:36:55;;;;;;;6.97;3.97;;;;;;;21.49;100.00;-18604.41;5061725;28;20749;-76
2023/07/23 07:39:21;;;;;;;6.80;3.95;;;;;;;21.34;100.00;-18600.47;5063763;28;20158;-76
2023/07/23 07:41:46;;;;;;;6.22;3.72;;;;;;;21.19;100.00;-18596.53;5058228;28;20814;-77
2023/07/23 07:44:12;;;;;;;7.30;3.95;;;;;;;20.95;100.00;-18590.13;5061411;28;20055;-77
2023/07/23 07:46:37;;;;;;;7.43;4.05;;;;;;;20.84;100.00;-18587.16;5052290;28;20037;-76
2023/07/23 07:49:04;;;;;;;5.55;3.50;;;;;;;20.81;100.00;-18586.31;5076172;28;20115;-77
2023/07/23 07:51:30;;;;;;;6.68;4.20;;;;;;;20.67;100.00;-18582.66;5084419;28;20043;-77
2023/07/23 07:53:55;;;;;;;8.13;4.63;;;;;;;20.76;100.00;-18585.09;5108079;28;20047;-78
2023/07/23 07:56:21;;;;;;;8.55;4.43;;;;;;;20.89;100.00;-18588.63;5097286;28;20084;-75
2023/07/23 07:58:47;;;;;;;7.55;4.78;;;;;;;20.84;100.00;-18587.28;5097285;28;20051;-77
2023/07/23 08:01:13;;;;;;;7.05;4.13;;;;;;;20.70;100.00;-18583.47;5095409;28;20075;-76
2023/07/23 08:03:39;;;;;;;7.45;4.38;;;;;;;20.55;100.00;-18579.38;5086255;28;20418;-76
2023/07/23 08:06:05;;;;;;;7.80;4.90;;;;;;;20.47;100.00;-18577.34;5106969;28;20046;-77
2023/07/23 08:08:33;;;;;;;6.85;4.15;;;;;;;20.19;100.00;-18569.84;5106458;28;20038;-77
2023/07/23 08:11:02;;;;;;;9.27;4.90;;;;;;;20.03;100.00;-18565.78;5104592;28;20552;-77
2023/07/23 08:13:28;;;;;;;8.95;4.78;;;;;;;20.09;100.00;-18567.13;5106287;28;20118;-77
2023/07/23 08:15:54;;;;;;;8.90;4.60;;;;;;;20.15;100.00;-18568.78;5089476;28;20524;-78
2023/07/23 08:18:21;;;;;;;9.15;5.28;;;;;;;19.86;100.00;-18561.16;5105147;28;20035;-78
2023/07/23 08:20:46;;;;;;;8.05;4.78;;;;;;;19.71;100.00;-18557.19;5100524;28;20471;-78
2023/07/23 08:23:12;;;;;;;10.18;5.35;;;;;;;19.82;100.00;-18560.19;5104660;28;20101;-78
2023/07/23 08:25:38;;;;;;;10.25;5.28;;;;;;;19.57;100.00;-18553.50;5099870;28;20139;-76
2023/07/23 08:28:07;;;;;;;10.68;5.75;;;;;;;19.50;100.00;-18551.59;5086062;28;20035;-78
2023/07/23 08:30:32;;;;;;;9.77;5.13;;;;;;;19.37;100.00;-18548.06;5104692;28;20093;-78
2023/07/23 08:32:59;;;;;;;10.68;5.88;;;;;;;19.33;100.00;-18546.97;5057846;28;20464;-77
2023/07/23 08:35:29;;;;;;;14.30;6.95;;;;;;;19.33;100.00;-18546.97;5024370;28;20052;-78
2023/07/23 08:37:57;;;;;;;10.85;6.57;;;;;;;19.30;100.00;-18546.16;5032406;28;20099;-77
2023/07/23 08:40:25;;;;;;;11.63;6.00;;;;;;;19.44;100.00;-18549.84;5036883;28;20048;-77
2023/07/23 08:42:53;;;;;;;13.43;7.35;;;;;;;19.61;100.00;-18554.47;5039860;28;20037;-78
2023/07/23 08:46:09;;;;;;;11.87;7.10;;;;;;;19.43;100.00;-18549.69;5040738;28;20044;-77
2023/07/23 08:48:54;;;;;;;11.75;6.63;;;;;;;19.55;100.00;-18552.97;4994938;28;20266;-78
2023/07/23 08:51:20;;;;;;;12.50;7.03;;;;;;;19.74;100.00;-18557.88;5039404;28;20042;-77
2023/07/23 08:53:48;;;;;;;11.55;6.20;;;;;;;19.55;100.00;-18552.84;5040348;28;20746;-77
2023/07/23 08:56:15;;;;;;;10.60;6.95;;;;;;;19.72;100.00;-18557.34;5038000;28;20604;-76
2023/07/23 08:58:42;;;;;;;8.55;5.85;;;;;;;19.66;100.00;-18555.69;5037556;28;20053;-76
2023/07/23 09:01:09;;;;;;;11.95;6.60;;;;;;;19.60;100.00;-18554.34;5039423;28;20053;-74
2023/07/23 09:03:35;;;;;;;13.70;6.72;;;;;;;19.81;100.00;-18559.91;5039432;28;20161;-76
2023/07/23 09:06:00;;;;;;;11.05;7.18;;;;;;;19.91;100.00;-18562.50;5101424;28;20578;-76
2023/07/23 09:08:25;;;;;;;11.55;6.15;;;;;;;19.93;100.00;-18563.06;5100481;28;20502;-76
2023/07/23 09:10:51;;;;;;;10.70;6.20;;;;;;;19.99;100.00;-18564.69;5105048;28;20139;-76
2023/07/23 09:13:16;;;;;;;10.65;6.28;;;;;;;19.88;100.00;-18561.69;5106772;28;20150;-76
2023/07/23 09:15:52;;;;;;;10.38;6.55;;;;;;;19.81;100.00;-18559.91;5108507;28;20464;-77
2023/07/23 09:18:19;;;;;;;12.50;6.75;;;;;;;20.00;100.00;-18564.97;5109705;28;20047;-76
2023/07/23 09:20:50;;;;;;;12.73;6.60;;;;;;;19.90;100.00;-18562.09;5109495;28;20044;-76
2023/07/23 09:23:16;;;;;;;9.75;6.07;;;;;;;19.93;100.00;-18563.06;5116292;28;20076;-76
2023/07/23 09:25:43;;;;;;;12.05;6.93;;;;;;;20.19;100.00;-18569.84;5112385;28;20032;-76
2023/07/23 09:28:29;;;;;;;10.88;6.00;;;;;;;19.97;100.00;-18564.16;5120239;28;20064;-76
2023/07/23 09:30:59;;;;;;;9.38;5.53;;;;;;;19.93;100.00;-18563.06;5100540;28;20047;-78
2023/07/23 09:33:35;;;;;;;11.82;5.53;;;;;;;19.96;100.00;-18563.88;5119535;28;20111;-77
2023/07/23 09:36:02;;;;;;;12.68;6.57;;;;;;;20.13;100.00;-18568.34;5084230;28;20043;-77
2023/07/23 09:38:29;;;;;;;10.20;5.25;;;;;;;20.15;100.00;-18568.91;5118491;27;20242;-78
2023/07/23 09:40:54;;;;;;;11.48;6.50;;;;;;;20.32;100.00;-18573.25;5114407;28;20047;-77
2023/07/23 09:43:21;;;;;;;10.45;6.30;;;;;;;20.40;100.00;-18575.56;5114602;28;20113;-78
2023/07/23 09:45:47;;;;;;;10.75;5.93;;;;;;;20.44;100.00;-18576.53;5112909;27;20450;-78
2023/07/23 09:48:17;;;;;;;10.82;5.80;;;;;;;20.35;100.00;-18574.09;5113734;28;20092;-77
2023/07/23 09:50:42;;;;;;;11.20;5.63;;;;;;;20.47;100.00;-18577.34;5093935;28;20119;-78
2023/07/23 09:53:08;;;;;;;9.07;5.22;;;;;;;20.48;100.00;-18577.63;5112668;28;20111;-78
2023/07/23 09:55:35;;;;;;;8.43;4.93;;;;;;;20.53;100.00;-18578.84;5110025;28;20035;-78
2023/07/23 09:58:02;;;;;;;7.15;4.28;;;;;;;20.28;100.00;-18572.31;5094003;28;20098;-79
2023/07/23 10:00:28;;;;;;;10.18;5.32;;;;;;;20.44;100.00;-18576.66;5106294;28;20056;-78
2023/07/23 10:02:55;;;;;;;11.50;5.47;;;;;;;20.59;100.00;-18580.47;5113633;28;20076;-77
2023/07/23 10:05:25;;;;;;;10.10;4.88;;;;;;;20.59;100.00;-18580.47;5110211;28;20422;-78
2023/07/23 10:08:11;;;;;;;7.75;4.22;;;;;;;20.51;100.00;-18578.44;5115372;28;20126;-77
2023/07/23 10:10:37;;;;;;;8.32;4.88;;;;;;;20.69;100.00;-18583.19;5092979;28;20493;-79
2023/07/23 10:13:05;;;;;;;8.65;4.30;;;;;;;20.69;100.00;-18583.19;5102152;28;20039;-79
2023/07/23 10:15:31;;;;;;;6.88;3.67;;;;;;;20.83;100.00;-18587.00;5110021;28;20039;-78
2023/07/23 10:18:00;;;;;;;7.15;4.15;;;;;;;21.02;100.00;-18591.91;5112679;28;20042;-79
2023/07/23 10:20:31;;;;;;;6.00;3.72;;;;;;;21.06;100.00;-18593.00;5087753;28;20122;-78
2023/07/23 10:22:57;;;;;;;6.50;4.13;;;;;;;21.12;100.00;-18594.63;5111046;28;20036;-79
2023/07/23 10:25:33;;;;;;;4.88;2.92;;;;;;;20.92;100.00;-18589.31;5107450;28;20116;-77
2023/07/23 10:28:01;;;;;;;4.70;2.88;;;;;;;20.96;100.00;-18590.53;5081898;28;20764;-77
2023/07/23 10:30:28;;;;;;;5.47;3.20;;;;;;;20.93;100.00;-18589.72;5114111;28;20103;-78
2023/07/23 10:33:08;;;;;;;5.45;3.35;;;;;;;20.99;100.00;-18591.22;5108938;28;20511;-77
2023/07/23 10:35:55;;;;;;;3.78;2.42;;;;;;;20.90;100.00;-18588.78;5092160;28;20048;-77
2023/07/23 10:38:24;;;;;;;3.55;2.28;;;;;;;20.86;100.00;-18587.81;5106409;28;20503;-76
2023/07/23 10:40:50;;;;;;;8.13;3.50;;;;;;;21.09;100.00;-18593.81;5090535;28;20048;-79
2023/07/23 10:43:16;;;;;;;6.28;3.08;;;;;;;20.91;100.00;-18589.03;5094621;28;20074;-78
2023/07/23 10:46:04;;;;;;;4.90;2.50;;;;;;;20.84;100.00;-18587.28;5100674;28;20068;-77
2023/07/23 10:48:43;;;;;;;5.80;3.25;;;;;;;21.04;100.00;-18592.59;5105742;28;20044;-78
2023/07/23 10:51:13;;;;;;;5.60;3.22;;;;;;;21.11;100.00;-18594.47;5104041;28;20046;-78
2023/07/23 10:53:41;;;;;;;4.97;2.53;;;;;;;20.96;100.00;-18590.41;5089360;28;20039;-78
2023/07/23 10:56:26;;;;;;;7.28;3.28;;;;;;;21.12;100.00;-18594.75;5085870;28;20040;-77
2023/07/23 10:59:21;;;;;;;5.50;2.95;;;;;;;21.04;100.00;-18592.44;5080939;28;20039;-77
2023/07/23 11:01:51;;;;;;;6.10;2.97;;;;;;;21.08;100.00;-18593.66;5093121;27;20048;-77
2023/07/23 11:04:24;;;;;;;5.43;3.50;;;;;;;21.00;100.00;-18591.34;5082814;28;20066;-77
2023/07/23 11:07:00;;;;;;;5.00;2.97;;;;;;;21.03;100.00;-18592.19;5099936;28;22177;-78
2023/07/23 11:09:30;;;;;;;4.90;2.55;;;;;;;21.02;100.00;-18591.91;5097318;28;20083;-76
2023/07/23 11:11:56;;;;;;;4.40;2.40;;;;;;;21.10;100.00;-18594.22;5097321;28;20066;-76